Bracebridge, Canada
Current Conditions -  °F | °C
As of 5:22 PM on Friday 31 Oct 2014 (Local Time) from CYQA Reporting Station
Light Rain Light Rain  
Wind Chill: 29°   Ceiling: 900
Heat Index: 36°   Visibility: 9mi
Dew Point: 34°   Wind: 8mph
Humidity: 93%   Direction: 40°NE
Pressure: 29.99"   Gusts: NA
Location:  45.05°N, 79.32°W
Report Text: CYQA 312122Z AUTO 04007KT 340V090 9SM -RA BKN009 OVC028 02/01 A2999 RMK SLP168
Loading
Personal Weather Stations






























Interactive Weather Map
Tropical Storm Tracking
New forecast layout! Learn more

10-Day Weather Forecast

Advertisements
Track Severe Weather on mobile